createdAt,value
2023-01-08T00:00:31.554Z,120.30
2023-01-08T00:03:34.515Z,134.05
2023-01-08T00:06:37.141Z,95.60
2023-01-08T00:09:39.447Z,121.10
2023-01-08T00:12:41.786Z,145.40
2023-01-08T00:15:44.059Z,129.30
2023-01-08T00:18:47.443Z,149.73
2023-01-08T00:21:49.750Z,176.50
2023-01-08T00:24:52.139Z,158.70
2023-01-08T00:27:54.466Z,113.38
2023-01-08T00:30:57.282Z,110.40
2023-01-08T00:33:59.838Z,121.18
2023-01-08T00:37:02.216Z,160.85
2023-01-08T00:40:04.996Z,121.05
2023-01-08T00:43:08.240Z,125.63
2023-01-08T00:46:10.643Z,83.70
2023-01-08T00:49:13.042Z,127.68
2023-01-08T00:52:15.304Z,124.45
2023-01-08T00:55:18.013Z,108.85
2023-01-08T00:58:20.427Z,108.38
2023-01-08T01:01:22.759Z,110.75
2023-01-08T01:04:26.815Z,111.95
2023-01-08T01:07:29.149Z,147.55
2023-01-08T01:10:31.444Z,100.47
2023-01-08T01:13:33.755Z,101.70
2023-01-08T01:16:36.711Z,119.22
2023-01-08T01:19:39.641Z,90.47
2023-01-08T01:22:42.725Z,97.70
2023-01-08T01:25:45.925Z,76.57
2023-01-08T01:28:50.091Z,104.03
2023-01-08T01:34:54.633Z,107.95
2023-01-08T01:37:56.878Z,92.28
2023-01-08T01:40:59.679Z,90.70
2023-01-08T01:44:41.973Z,107.65
2023-01-08T01:47:47.045Z,109.60
2023-01-08T01:50:51.266Z,94.38
2023-01-08T01:56:56.259Z,108.50
2023-01-08T01:59:59.217Z,94.15
2023-01-08T02:03:01.888Z,91.20
2023-01-08T02:06:10.445Z,101.13
2023-01-08T02:09:26.437Z,108.50
2023-01-08T02:12:35.020Z,100.13
2023-01-08T02:16:01.118Z,120.60
2023-01-08T02:19:43.871Z,104.32
2023-01-08T02:22:54.987Z,112.28
2023-01-08T02:26:00.174Z,109.47
2023-01-08T02:29:08.784Z,125.40
2023-01-08T02:32:11.165Z,101.43
2023-01-08T02:35:13.637Z,111.80
2023-01-08T02:38:18.548Z,93.90
2023-01-08T02:41:26.303Z,105.43
2023-01-08T02:44:56.123Z,109.10
2023-01-08T02:48:38.335Z,94.57
2023-01-08T02:51:47.461Z,123.50
2023-01-08T02:54:50.131Z,112.50
2023-01-08T02:57:52.880Z,119.22
2023-01-08T03:00:55.429Z,113.78
2023-01-08T03:04:01.141Z,110.40
2023-01-08T03:07:03.676Z,123.10
2023-01-08T03:10:06.763Z,114.82
2023-01-08T03:13:16.763Z,76.57
2023-01-08T03:16:23.827Z,102.32
2023-01-08T03:19:41.855Z,106.88
2023-01-08T03:22:46.545Z,104.88
2023-01-08T03:25:48.989Z,103.90
2023-01-08T03:28:54.537Z,90.88
2023-01-08T03:32:01.952Z,101.60
2023-01-08T03:35:06.504Z,101.22
2023-01-08T03:38:16.664Z,97.45
2023-01-08T03:41:20.569Z,90.07
2023-01-08T03:44:22.929Z,97.38
2023-01-08T03:47:26.103Z,90.70
2023-01-08T03:50:29.427Z,70.50
2023-01-08T03:53:31.779Z,103.57
2023-01-08T03:56:34.139Z,93.53
2023-01-08T03:59:36.469Z,84.30
2023-01-08T04:02:38.851Z,84.70
2023-01-08T04:05:41.247Z,89.53
2023-01-08T04:08:43.710Z,87.15
2023-01-08T04:11:45.998Z,82.80
2023-01-08T04:14:48.365Z,80.95
2023-01-08T04:17:50.749Z,87.75
2023-01-08T04:20:53.045Z,94.47
2023-01-08T04:23:55.748Z,96.55
2023-01-08T04:26:58.141Z,76.93
2023-01-08T04:30:00.394Z,91.75
2023-01-08T04:33:02.766Z,87.45
2023-01-08T04:36:05.642Z,85.57
2023-01-08T04:39:08.321Z,94.78
2023-01-08T04:42:10.664Z,98.88
2023-01-08T04:45:12.924Z,97.80
2023-01-08T04:48:15.233Z,87.68
2023-01-08T04:51:17.618Z,103.65
2023-01-08T04:54:19.907Z,89.45
2023-01-08T04:57:22.260Z,86.15
2023-01-08T05:00:24.513Z,95.47
2023-01-08T05:03:27.040Z,100.28
2023-01-08T05:06:30.801Z,89.63
2023-01-08T05:09:33.204Z,85.80
2023-01-08T05:12:35.516Z,89.32
2023-01-08T05:15:38.986Z,82.32
2023-01-08T05:18:41.315Z,86.80
2023-01-08T05:21:43.622Z,92.38
2023-01-08T05:24:45.900Z,91.85
2023-01-08T05:27:48.751Z,84.68
2023-01-08T05:30:51.214Z,81.28
2023-01-08T05:33:53.463Z,84.80
2023-01-08T05:36:55.745Z,82.65
2023-01-08T05:39:57.998Z,76.32
2023-01-08T05:43:01.269Z,80.13
2023-01-08T05:46:04.919Z,54.33
2023-01-08T05:49:07.263Z,71.50
2023-01-08T05:52:09.739Z,73.32
2023-01-08T05:55:12.627Z,71.50
2023-01-08T05:58:19.084Z,69.07
2023-01-08T06:01:21.578Z,64.72
2023-01-08T06:04:24.486Z,70.93
2023-01-08T06:07:27.007Z,62.60
2023-01-08T06:10:29.467Z,66.72
2023-01-08T06:13:32.263Z,67.32
2023-01-08T06:16:34.532Z,63.75
2023-01-08T06:19:36.861Z,68.07
2023-01-08T06:22:39.206Z,65.68
2023-01-08T06:25:41.521Z,68.68
2023-01-08T06:28:43.982Z,341.88
2023-01-08T06:31:46.340Z,66.60
2023-01-08T06:34:48.815Z,68.80
2023-01-08T06:37:51.312Z,68.68
2023-01-08T06:40:53.684Z,68.28
2023-01-08T06:43:56.181Z,65.80
2023-01-08T06:46:58.602Z,67.78
2023-01-08T06:50:00.941Z,67.95
2023-01-08T06:53:03.318Z,63.58
2023-01-08T06:56:07.595Z,69.80
2023-01-08T06:59:09.984Z,69.53
2023-01-08T07:02:16.617Z,71.38
2023-01-08T07:05:19.224Z,64.80
2023-01-08T07:08:21.697Z,67.60
2023-01-08T07:11:24.049Z,55.70
2023-01-08T07:14:26.426Z,57.72
2023-01-08T07:17:28.798Z,52.78
2023-01-08T07:20:31.103Z,52.05
2023-01-08T07:23:34.250Z,59.45
2023-01-08T07:26:36.519Z,62.47
2023-01-08T07:29:38.839Z,63.63
2023-01-08T07:32:41.190Z,62.17
2023-01-08T07:35:43.502Z,57.83
2023-01-08T07:38:45.844Z,58.88
2023-01-08T07:41:48.130Z,55.47
2023-01-08T07:44:50.431Z,61.00
2023-01-08T07:47:52.715Z,59.47
2023-01-08T07:50:55.093Z,61.60
2023-01-08T07:53:57.425Z,57.80
2023-01-08T07:56:59.808Z,57.05
2023-01-08T08:00:02.217Z,52.85
2023-01-08T08:03:11.640Z,56.10
2023-01-08T08:06:14.145Z,56.95
2023-01-08T08:09:16.411Z,60.13
2023-01-08T08:12:18.714Z,65.78
2023-01-08T08:15:21.186Z,55.85
2023-01-08T08:18:23.611Z,56.33
2023-01-08T08:21:26.116Z,57.90
2023-01-08T08:24:28.575Z,66.70
2023-01-08T08:27:30.881Z,62.53
2023-01-08T08:30:34.757Z,62.55
2023-01-08T08:33:37.104Z,62.72
2023-01-08T08:36:39.388Z,65.88
2023-01-08T08:39:41.710Z,55.03
2023-01-08T08:42:44.049Z,63.08
2023-01-08T08:45:46.332Z,64.38
2023-01-08T08:48:48.697Z,60.03
2023-01-08T08:51:51.045Z,68.97
2023-01-08T08:54:53.430Z,76.90
2023-01-08T08:57:55.752Z,57.25
2023-01-08T09:01:02.743Z,54.38
2023-01-08T09:04:05.139Z,58.55
2023-01-08T09:07:07.679Z,62.80
2023-01-08T09:10:10.190Z,56.35
2023-01-08T09:13:12.483Z,61.53
2023-01-08T09:16:15.073Z,62.00
2023-01-08T09:19:17.379Z,59.85
2023-01-08T09:22:19.986Z,61.05
2023-01-08T09:25:22.417Z,54.67
2023-01-08T09:28:25.024Z,49.88
2023-01-08T09:31:28.015Z,59.15
2023-01-08T09:34:31.695Z,56.47
2023-01-08T09:37:34.173Z,57.22
2023-01-08T09:41:05.786Z,57.55
2023-01-08T09:44:08.402Z,59.25
2023-01-08T09:47:28.844Z,61.80
2023-01-08T09:50:31.955Z,58.60
2023-01-08T09:53:34.403Z,65.63
2023-01-08T09:56:37.329Z,63.13
2023-01-08T09:59:39.810Z,53.80
2023-01-08T10:02:42.600Z,53.92
2023-01-08T10:05:45.127Z,46.90
2023-01-08T10:08:47.405Z,52.33
2023-01-08T10:11:50.898Z,50.53
2023-01-08T10:14:54.760Z,39.35
2023-01-08T10:18:06.395Z,56.47
2023-01-08T10:21:14.075Z,49.92
2023-01-08T10:24:16.628Z,44.28
2023-01-08T10:27:20.111Z,44.03
2023-01-08T10:30:25.041Z,35.67
2023-01-08T10:33:32.128Z,47.40
2023-01-08T10:36:40.213Z,42.28
2023-01-08T10:39:47.988Z,35.70
2023-01-08T10:42:51.313Z,41.63
2023-01-08T10:46:04.032Z,49.35
2023-01-08T10:49:08.028Z,38.85
2023-01-08T10:52:25.718Z,45.38
2023-01-08T10:55:36.066Z,40.40
2023-01-08T10:58:42.646Z,43.08
2023-01-08T11:01:47.773Z,41.20
2023-01-08T11:04:51.549Z,42.17
2023-01-08T11:07:57.221Z,39.17
2023-01-08T11:11:01.332Z,42.20
2023-01-08T11:14:16.048Z,46.22
2023-01-08T11:17:18.320Z,58.17
2023-01-08T11:20:39.115Z,52.10
2023-01-08T11:23:41.386Z,49.88
2023-01-08T11:26:50.735Z,42.63
2023-01-08T11:30:01.643Z,47.63
2023-01-08T11:33:10.568Z,47.38
2023-01-08T11:36:28.971Z,40.60
2023-01-08T11:39:32.393Z,41.78
2023-01-08T11:42:49.581Z,36.83
2023-01-08T11:46:28.821Z,47.00
2023-01-08T11:49:44.220Z,46.25
2023-01-08T11:52:55.452Z,46.08
2023-01-08T11:56:31.970Z,68.15
2023-01-08T12:00:01.590Z,45.90
2023-01-08T12:03:26.033Z,44.15
2023-01-08T12:06:50.428Z,42.55
2023-01-08T12:10:25.112Z,45.05
2023-01-08T12:14:04.218Z,54.22
2023-01-08T12:17:37.320Z,45.70
2023-01-08T12:21:10.764Z,46.10
2023-01-08T12:24:21.800Z,45.10
2023-01-08T12:27:58.597Z,39.95
2023-01-08T12:31:33.892Z,43.97
2023-01-08T12:34:57.747Z,41.83
2023-01-08T12:38:05.458Z,47.23
2023-01-08T12:41:10.828Z,36.88
2023-01-08T12:44:18.626Z,44.67
2023-01-08T12:47:25.713Z,42.13
2023-01-08T12:51:09.448Z,39.35
2023-01-08T12:54:20.866Z,40.78
2023-01-08T12:57:40.091Z,39.50
2023-01-08T13:00:46.575Z,41.85
2023-01-08T13:03:49.296Z,37.53
2023-01-08T13:07:04.480Z,38.90
2023-01-08T13:10:09.816Z,42.58
2023-01-08T13:13:33.018Z,38.33
2023-01-08T13:16:40.455Z,38.47
2023-01-08T13:19:44.274Z,41.50
2023-01-08T13:22:54.244Z,41.15
2023-01-08T13:25:58.915Z,39.70
2023-01-08T13:29:23.889Z,48.35
2023-01-08T13:32:44.122Z,37.58
2023-01-08T13:35:46.393Z,39.00
2023-01-08T13:39:00.732Z,54.00
2023-01-08T13:45:16.212Z,46.30
2023-01-08T13:48:23.409Z,66.05
2023-01-08T13:51:39.316Z,44.50
2023-01-08T13:54:44.131Z,42.47
2023-01-08T13:57:50.165Z,46.17
2023-01-08T14:00:54.767Z,41.75
2023-01-08T14:03:57.247Z,45.42
2023-01-08T14:07:14.410Z,45.47
2023-01-08T14:10:20.576Z,50.40
2023-01-08T14:13:29.140Z,47.80
2023-01-08T14:16:33.540Z,46.15
2023-01-08T14:19:36.065Z,57.95
2023-01-08T14:22:38.623Z,47.78
2023-01-08T14:25:42.145Z,44.20
2023-01-08T14:28:54.937Z,47.30
2023-01-08T14:31:59.153Z,41.15
2023-01-08T14:35:02.150Z,47.28
2023-01-08T14:38:05.822Z,42.05
2023-01-08T14:41:11.626Z,54.17
2023-01-08T14:44:17.383Z,56.00
2023-01-08T14:47:21.574Z,53.67
2023-01-08T14:50:33.026Z,45.47
2023-01-08T14:53:48.667Z,58.17
2023-01-08T14:56:54.814Z,47.92
2023-01-08T15:00:01.313Z,48.95
2023-01-08T15:03:03.729Z,42.75
2023-01-08T15:06:07.535Z,50.15
2023-01-08T15:09:36.451Z,52.67
2023-01-08T15:12:38.809Z,53.67
2023-01-08T15:15:58.063Z,45.25
2023-01-08T15:19:20.359Z,43.45
2023-01-08T15:22:27.783Z,45.97
2023-01-08T15:25:30.863Z,40.80
2023-01-08T15:28:33.376Z,47.47
2023-01-08T15:31:41.793Z,42.60
2023-01-08T15:34:45.309Z,41.70
2023-01-08T15:37:47.711Z,51.72
2023-01-08T15:40:50.672Z,44.00
2023-01-08T15:43:52.982Z,53.80
2023-01-08T15:46:55.355Z,43.60
2023-01-08T15:49:57.659Z,46.13
2023-01-08T15:53:01.207Z,44.22
2023-01-08T15:56:03.638Z,44.67
2023-01-08T15:59:06.012Z,45.13
2023-01-08T16:02:12.256Z,46.83
2023-01-08T16:05:17.581Z,51.95
2023-01-08T16:08:20.119Z,48.92
2023-01-08T16:11:22.464Z,54.10
2023-01-08T16:14:24.775Z,46.20
2023-01-08T16:17:30.133Z,50.25
2023-01-08T16:20:32.425Z,57.80
2023-01-08T16:23:35.867Z,54.13
2023-01-08T16:26:38.146Z,37.30
2023-01-08T16:29:40.370Z,46.97
2023-01-08T16:32:43.119Z,44.90
2023-01-08T16:35:45.342Z,45.85
2023-01-08T16:38:49.204Z,47.83
2023-01-08T16:41:51.596Z,136.02
2023-01-08T16:44:53.951Z,44.78
2023-01-08T16:47:56.300Z,44.00
2023-01-08T16:51:05.491Z,40.95
2023-01-08T16:54:08.227Z,46.97
2023-01-08T16:57:10.588Z,40.38
2023-01-08T17:00:13.281Z,40.88
2023-01-08T17:03:15.593Z,39.63
2023-01-08T17:06:17.933Z,41.78
2023-01-08T17:09:20.311Z,53.80
2023-01-08T17:12:22.676Z,50.60
2023-01-08T17:15:25.796Z,46.25
2023-01-08T17:18:28.443Z,46.88
2023-01-08T17:21:30.868Z,46.90
2023-01-08T17:24:33.371Z,50.65
2023-01-08T17:27:36.160Z,48.65
2023-01-08T17:30:38.483Z,53.60
2023-01-08T17:33:41.380Z,45.22
2023-01-08T17:36:43.904Z,41.08
2023-01-08T17:39:46.265Z,41.72
2023-01-08T17:42:48.564Z,44.88
2023-01-08T17:45:50.977Z,39.75
2023-01-08T17:48:53.432Z,37.08
2023-01-08T17:51:57.158Z,39.80
2023-01-08T17:54:59.396Z,40.13
2023-01-08T17:58:01.664Z,43.63
2023-01-08T18:01:04.414Z,47.45
2023-01-08T18:04:06.799Z,44.40
2023-01-08T18:07:09.460Z,43.95
2023-01-08T18:10:13.120Z,44.67
2023-01-08T18:13:15.576Z,40.38
2023-01-08T18:16:18.039Z,38.17
2023-01-08T18:19:21.108Z,48.15
2023-01-08T18:22:23.579Z,41.88
2023-01-08T18:25:25.867Z,44.25
2023-01-08T18:28:28.175Z,43.15
2023-01-08T18:31:30.478Z,40.47
2023-01-08T18:34:32.881Z,78.15
2023-01-08T18:37:35.233Z,40.47
2023-01-08T18:40:37.591Z,37.42
2023-01-08T18:43:39.915Z,39.00
2023-01-08T18:46:42.367Z,38.22
2023-01-08T18:49:44.629Z,40.72
2023-01-08T18:52:47.037Z,38.03
2023-01-08T18:55:50.565Z,41.47
2023-01-08T18:58:52.895Z,37.63
2023-01-08T19:01:55.305Z,40.70
2023-01-08T19:04:57.682Z,40.10
2023-01-08T19:08:00.117Z,39.53
2023-01-08T19:11:05.914Z,50.20
2023-01-08T19:14:12.580Z,38.58
2023-01-08T19:17:14.947Z,38.90
2023-01-08T19:20:17.575Z,42.35
2023-01-08T19:23:20.240Z,41.97
2023-01-08T19:26:22.821Z,39.78
2023-01-08T19:29:25.164Z,41.88
2023-01-08T19:32:27.504Z,38.08
2023-01-08T19:35:29.937Z,41.92
2023-01-08T19:38:32.850Z,44.83
2023-01-08T19:41:54.741Z,37.08
2023-01-08T19:44:58.691Z,44.67
2023-01-08T19:48:03.291Z,43.60
2023-01-08T19:51:09.305Z,43.28
2023-01-08T19:54:12.822Z,41.85
2023-01-08T19:57:15.153Z,32.63
2023-01-08T20:00:18.253Z,40.25
2023-01-08T20:03:29.329Z,53.92
2023-01-08T20:06:31.619Z,36.85
2023-01-08T20:09:35.066Z,46.47
2023-01-08T20:12:38.440Z,45.53
2023-01-08T20:15:40.789Z,50.45
2023-01-08T20:18:43.741Z,37.60
2023-01-08T20:21:47.738Z,38.63
2023-01-08T20:24:51.656Z,39.08
2023-01-08T20:27:55.411Z,38.50
2023-01-08T20:30:58.026Z,41.22
2023-01-08T20:34:02.153Z,40.13
2023-01-08T20:40:09.334Z,31.35
2023-01-08T20:43:11.794Z,31.07
2023-01-08T20:46:14.882Z,37.35
2023-01-08T20:49:19.096Z,39.10
2023-01-08T20:55:23.883Z,39.10
2023-01-08T20:58:26.382Z,33.60
2023-01-08T21:01:34.246Z,42.80
2023-01-08T21:04:41.473Z,40.55
2023-01-08T21:07:43.849Z,41.28
2023-01-08T21:10:46.431Z,36.45
2023-01-08T21:13:49.275Z,35.85
2023-01-08T21:16:51.628Z,39.47
2023-01-08T21:19:54.235Z,43.40
2023-01-08T21:22:57.840Z,41.88
2023-01-08T21:26:05.793Z,45.28
2023-01-08T21:29:09.118Z,44.90
2023-01-08T21:32:11.593Z,44.92
2023-01-08T21:35:14.137Z,40.35
2023-01-08T21:38:16.500Z,40.53
2023-01-08T21:41:39.998Z,42.38
2023-01-08T21:45:01.502Z,42.75
2023-01-08T21:48:04.030Z,40.60
2023-01-08T21:51:26.334Z,41.28
2023-01-08T21:54:28.690Z,41.13
2023-01-08T21:57:31.085Z,48.10
2023-01-08T22:00:33.445Z,59.30
2023-01-08T22:03:35.727Z,55.60
2023-01-08T22:06:38.404Z,49.72
2023-01-08T22:09:40.753Z,47.90
2023-01-08T22:12:43.082Z,50.30
2023-01-08T22:15:45.490Z,51.85
2023-01-08T22:18:47.830Z,61.47
2023-01-08T22:21:50.177Z,58.53
2023-01-08T22:24:52.647Z,50.72
2023-01-08T22:27:56.325Z,48.88
2023-01-08T22:30:58.726Z,48.50
2023-01-08T22:34:01.342Z,53.95
2023-01-08T22:37:03.781Z,51.88
2023-01-08T22:40:06.737Z,54.72
2023-01-08T22:43:09.128Z,52.33
2023-01-08T22:46:16.282Z,57.95
2023-01-08T22:49:18.599Z,59.30
2023-01-08T22:52:20.978Z,63.63
2023-01-08T22:55:23.367Z,57.08
2023-01-08T22:58:25.773Z,58.40
2023-01-08T23:01:28.206Z,58.92
2023-01-08T23:04:30.598Z,63.97
2023-01-08T23:07:33.703Z,67.93
2023-01-08T23:10:36.120Z,50.50
2023-01-08T23:13:39.345Z,65.00
2023-01-08T23:16:41.847Z,57.97
2023-01-08T23:19:44.397Z,61.05
2023-01-08T23:22:47.819Z,50.35
2023-01-08T23:25:50.085Z,39.92
2023-01-08T23:28:54.122Z,55.28
2023-01-08T23:32:00.466Z,59.38
2023-01-08T23:35:02.767Z,58.00
2023-01-08T23:38:05.206Z,59.35
2023-01-08T23:41:07.688Z,55.65
2023-01-08T23:44:15.905Z,54.72
2023-01-08T23:47:18.174Z,52.88
2023-01-08T23:50:20.542Z,60.85
2023-01-08T23:53:23.314Z,53.05
2023-01-08T23:56:25.706Z,58.45
2023-01-08T23:59:28.023Z,54.35
